createdAt,value
2019-01-31T00:00:06.318Z,22.33
2019-01-31T00:03:01.479Z,22.33
2019-01-31T00:06:00.600Z,22.48
2019-01-31T00:08:59.284Z,22.41
2019-01-31T00:12:09.257Z,22.48
2019-01-31T00:15:16.250Z,22.48
2019-01-31T00:18:31.589Z,22.36
2019-01-31T00:21:35.478Z,22.36
2019-01-31T00:24:28.138Z,22.42
2019-01-31T00:27:41.576Z,22.33
2019-01-31T00:30:24.008Z,22.27
2019-01-31T00:33:16.479Z,22.29
2019-01-31T00:36:47.986Z,22.29
2019-01-31T00:43:50.632Z,22.29
2019-01-31T00:47:07.448Z,22.22
2019-01-31T00:50:19.987Z,22.17
2019-01-31T00:53:37.447Z,22.21
2019-01-31T00:56:52.694Z,22.20
2019-01-31T00:59:53.802Z,22.20
2019-01-31T01:03:21.616Z,22.18
2019-01-31T01:06:41.387Z,22.19
2019-01-31T01:09:50.429Z,22.19
2019-01-31T01:16:32.399Z,22.18
2019-01-31T01:20:06.406Z,22.13
2019-01-31T01:22:51.273Z,22.13
2019-01-31T01:26:14.574Z,22.13
2019-01-31T01:29:31.121Z,22.14
2019-01-31T01:32:56.443Z,22.14
2019-01-31T01:39:19.344Z,21.98
2019-01-31T01:42:28.812Z,21.98
2019-01-31T01:46:13.562Z,22.09
2019-01-31T01:48:54.827Z,22.05
2019-01-31T01:52:02.407Z,22.09
2019-01-31T01:55:56.268Z,22.06
2019-01-31T01:58:51.874Z,22.06
2019-01-31T02:01:54.566Z,22.01
2019-01-31T02:05:05.540Z,22.08
2019-01-31T02:07:53.566Z,21.96
2019-01-31T02:11:08.978Z,21.96
2019-01-31T02:14:04.783Z,21.98
2019-01-31T02:17:04.842Z,21.98
2019-01-31T02:20:18.041Z,21.94
2019-01-31T02:23:11.479Z,21.99
2019-01-31T02:26:28.600Z,21.86
2019-01-31T02:29:58.875Z,21.87
2019-01-31T02:32:42.765Z,21.84
2019-01-31T02:36:07.388Z,21.84
2019-01-31T02:39:27.860Z,21.84
2019-01-31T02:42:27.282Z,21.77
2019-01-31T02:45:14.236Z,21.77
2019-01-31T02:48:15.037Z,21.88
2019-01-31T02:51:50.067Z,21.88
2019-01-31T02:54:45.516Z,21.85
2019-01-31T02:58:14.409Z,21.83
2019-01-31T03:01:14.443Z,21.83
2019-01-31T03:04:00.963Z,21.86
2019-01-31T03:07:36.449Z,21.85
2019-01-31T03:11:02.445Z,21.82
2019-01-31T03:14:09.956Z,21.87
2019-01-31T03:17:36.058Z,21.87
2019-01-31T03:21:36.633Z,21.82
2019-01-31T03:24:56.208Z,21.82
2019-01-31T03:28:27.262Z,21.78
2019-01-31T03:32:14.462Z,21.77
2019-01-31T03:35:42.137Z,21.77
2019-01-31T03:38:41.370Z,21.76
2019-01-31T03:42:05.465Z,21.76
2019-01-31T03:44:59.375Z,21.73
2019-01-31T03:48:05.921Z,21.71
2019-01-31T03:51:07.885Z,21.72
2019-01-31T03:54:24.649Z,21.60
2019-01-31T03:57:49.280Z,21.60
2019-01-31T04:00:54.296Z,21.69
2019-01-31T04:03:35.014Z,21.74
2019-01-31T04:06:27.842Z,21.69
2019-01-31T04:08:56.366Z,21.68
2019-01-31T04:11:24.066Z,21.68
2019-01-31T04:13:52.865Z,21.68
2019-01-31T04:16:22.155Z,21.72
2019-01-31T04:18:50.438Z,21.72
2019-01-31T04:21:18.629Z,21.70
2019-01-31T04:23:48.204Z,21.59
2019-01-31T04:26:17.711Z,21.65
2019-01-31T04:28:46.249Z,21.61
2019-01-31T04:31:13.808Z,21.61
2019-01-31T04:33:42.149Z,21.62
2019-01-31T04:36:09.439Z,21.62
2019-01-31T04:38:37.750Z,21.59
2019-01-31T04:41:06.057Z,21.60
2019-01-31T04:43:35.489Z,21.61
2019-01-31T04:46:04.480Z,21.63
2019-01-31T04:48:32.800Z,21.52
2019-01-31T04:50:59.803Z,21.52
2019-01-31T04:53:27.465Z,21.64
2019-01-31T04:55:55.485Z,21.64
2019-01-31T04:58:23.806Z,21.54
2019-01-31T05:00:51.865Z,21.66
2019-01-31T05:03:20.708Z,21.66
2019-01-31T05:05:48.957Z,21.55
2019-01-31T05:08:16.979Z,21.55
2019-01-31T05:10:44.803Z,21.62
2019-01-31T05:13:13.739Z,21.62
2019-01-31T05:15:42.012Z,21.61
2019-01-31T05:18:10.648Z,21.61
2019-01-31T05:20:38.359Z,21.66
2019-01-31T05:23:06.134Z,21.63
2019-01-31T05:25:34.437Z,21.59
2019-01-31T05:28:03.386Z,21.59
2019-01-31T05:30:31.632Z,21.55
2019-01-31T05:32:59.434Z,21.56
2019-01-31T05:35:27.867Z,21.63
2019-01-31T05:37:55.366Z,21.73
2019-01-31T05:40:22.999Z,21.73
2019-01-31T05:42:50.755Z,21.74
2019-01-31T05:45:19.250Z,21.75
2019-01-31T05:47:46.819Z,21.75
2019-01-31T05:50:17.653Z,21.82
2019-01-31T05:52:45.387Z,21.81
2019-01-31T05:55:14.247Z,21.78
2019-01-31T05:58:00.696Z,21.80
2019-01-31T06:00:32.793Z,21.71
2019-01-31T06:03:02.481Z,21.72
2019-01-31T06:05:32.292Z,21.72
2019-01-31T06:08:02.007Z,21.72
2019-01-31T06:10:29.843Z,21.74
2019-01-31T06:12:59.034Z,21.74
2019-01-31T06:15:27.250Z,21.76
2019-01-31T06:17:59.457Z,21.81
2019-01-31T06:20:27.379Z,21.76
2019-01-31T06:22:56.790Z,21.73
2019-01-31T06:25:26.582Z,21.74
2019-01-31T06:27:57.508Z,21.74
2019-01-31T06:30:25.933Z,21.78
2019-01-31T06:33:14.932Z,21.73
2019-01-31T06:35:42.668Z,21.79
2019-01-31T06:38:12.119Z,21.77
2019-01-31T06:40:39.901Z,21.56
2019-01-31T06:43:09.066Z,21.74
2019-01-31T06:45:39.163Z,21.74
2019-01-31T06:48:08.489Z,21.61
2019-01-31T06:50:38.385Z,21.48
2019-01-31T06:53:06.959Z,21.48
2019-01-31T06:55:36.145Z,21.42
2019-01-31T06:58:03.711Z,21.42
2019-01-31T07:00:33.269Z,21.46
2019-01-31T07:03:02.493Z,21.59
2019-01-31T07:05:30.720Z,21.59
2019-01-31T07:07:59.253Z,21.57
2019-01-31T07:10:29.614Z,21.62
2019-01-31T07:12:59.470Z,21.67
2019-01-31T07:15:29.908Z,21.75
2019-01-31T07:18:00.823Z,21.84
2019-01-31T07:20:31.298Z,21.85
2019-01-31T07:23:00.732Z,21.93
2019-01-31T07:25:29.915Z,21.93
2019-01-31T07:27:59.735Z,22.13
2019-01-31T07:30:29.507Z,22.21
2019-01-31T07:32:59.689Z,22.24
2019-01-31T07:35:32.912Z,22.22
2019-01-31T07:39:04.803Z,22.17
2019-01-31T07:41:41.148Z,22.17
2019-01-31T07:44:37.288Z,22.22
2019-01-31T07:47:06.772Z,22.28
2019-01-31T07:49:37.293Z,22.17
2019-01-31T07:52:07.265Z,22.17
2019-01-31T07:54:36.683Z,22.31
2019-01-31T07:57:05.697Z,22.23
2019-01-31T07:59:34.077Z,22.23
2019-01-31T08:02:03.276Z,22.33
2019-01-31T08:04:32.884Z,22.33
2019-01-31T08:08:26.515Z,22.27
2019-01-31T08:10:55.236Z,22.27
2019-01-31T08:13:24.537Z,22.38
2019-01-31T08:15:52.903Z,22.32
2019-01-31T08:18:21.680Z,22.24
2019-01-31T08:20:50.020Z,22.33
2019-01-31T08:23:20.161Z,22.27
2019-01-31T08:25:50.879Z,22.24
2019-01-31T08:28:21.272Z,22.25
2019-01-31T08:30:49.826Z,22.27
2019-01-31T08:33:19.448Z,22.13
2019-01-31T08:35:48.433Z,22.13
2019-01-31T08:38:19.400Z,22.26
2019-01-31T08:40:49.541Z,22.26
2019-01-31T08:43:20.493Z,22.24
2019-01-31T08:45:49.740Z,22.20
2019-01-31T08:48:21.485Z,22.20
2019-01-31T08:50:50.605Z,22.19
2019-01-31T08:53:20.506Z,22.12
2019-01-31T08:55:49.275Z,22.12
2019-01-31T08:58:17.948Z,22.12
2019-01-31T09:00:46.993Z,21.88
2019-01-31T09:03:16.707Z,21.88
2019-01-31T09:05:46.698Z,22.12
2019-01-31T09:09:59.030Z,22.10
2019-01-31T09:12:28.545Z,22.08
2019-01-31T09:14:58.448Z,21.98
2019-01-31T09:17:26.855Z,22.09
2019-01-31T09:22:52.499Z,22.18
2019-01-31T09:26:19.464Z,22.18
2019-01-31T09:29:41.710Z,22.18
2019-01-31T09:33:05.437Z,22.18
2019-01-31T09:36:04.771Z,22.27
2019-01-31T09:42:26.627Z,22.22
2019-01-31T09:45:54.992Z,22.19
2019-01-31T09:49:00.538Z,22.16
2019-01-31T09:52:30.531Z,22.10
2019-01-31T09:55:45.678Z,22.30
2019-01-31T09:58:51.907Z,22.30
2019-01-31T10:02:47.251Z,22.29
2019-01-31T10:06:13.898Z,22.28
2019-01-31T10:09:11.796Z,22.41
2019-01-31T10:12:38.931Z,22.49
2019-01-31T10:16:18.094Z,22.49
2019-01-31T10:19:36.688Z,22.52
2019-01-31T10:22:26.909Z,22.54
2019-01-31T10:25:58.907Z,22.60
2019-01-31T10:29:12.174Z,22.67
2019-01-31T10:32:43.731Z,22.63
2019-01-31T10:35:42.230Z,22.66
2019-01-31T10:38:35.890Z,22.68
2019-01-31T10:41:42.414Z,22.57
2019-01-31T10:44:44.481Z,22.57
2019-01-31T10:50:45.026Z,22.77
2019-01-31T10:53:42.633Z,22.79
2019-01-31T10:56:32.717Z,22.80
2019-01-31T11:00:21.460Z,22.84
2019-01-31T11:03:27.815Z,22.84
2019-01-31T11:07:04.397Z,22.80
2019-01-31T11:10:24.019Z,22.80
2019-01-31T11:17:03.830Z,22.82
2019-01-31T11:20:24.556Z,22.84
2019-01-31T11:23:44.527Z,22.84
2019-01-31T11:26:46.533Z,22.84
2019-01-31T11:30:04.554Z,22.84
2019-01-31T11:33:37.656Z,22.85
2019-01-31T11:37:12.711Z,22.83
2019-01-31T11:39:58.405Z,22.84
2019-01-31T11:42:48.162Z,22.89
2019-01-31T11:46:10.367Z,22.83
2019-01-31T11:49:00.400Z,22.89
2019-01-31T11:52:31.759Z,22.91
2019-01-31T11:55:26.443Z,22.91
2019-01-31T11:58:54.604Z,22.96
2019-01-31T12:01:24.087Z,22.95
2019-01-31T12:03:56.985Z,22.99
2019-01-31T12:06:25.278Z,22.99
2019-01-31T12:08:52.809Z,23.01
2019-01-31T12:11:22.371Z,23.05
2019-01-31T12:13:52.587Z,23.09
2019-01-31T12:16:20.404Z,23.09
2019-01-31T12:18:50.335Z,23.07
2019-01-31T12:21:20.952Z,23.10
2019-01-31T12:23:51.239Z,23.10
2019-01-31T12:26:22.057Z,23.10
2019-01-31T12:28:52.846Z,23.10
2019-01-31T12:31:21.571Z,22.95
2019-01-31T12:33:50.888Z,22.95
2019-01-31T12:36:18.787Z,23.14
2019-01-31T12:38:48.888Z,23.03
2019-01-31T12:41:16.803Z,23.00
2019-01-31T12:43:46.570Z,23.00
2019-01-31T12:46:14.593Z,22.99
2019-01-31T12:48:44.447Z,22.99
2019-01-31T12:51:13.806Z,22.98
2019-01-31T12:53:45.637Z,23.04
2019-01-31T12:56:13.808Z,23.02
2019-01-31T12:58:42.933Z,23.03
2019-01-31T13:01:12.979Z,23.03
2019-01-31T13:03:41.524Z,23.07
2019-01-31T13:06:11.862Z,23.13
2019-01-31T13:08:40.742Z,23.17
2019-01-31T13:11:09.447Z,23.17
2019-01-31T13:13:45.840Z,23.19
2019-01-31T13:16:09.889Z,23.21
2019-01-31T13:18:38.669Z,23.19
2019-01-31T13:21:06.651Z,23.19
2019-01-31T13:23:36.568Z,23.11
2019-01-31T13:26:06.220Z,23.11
2019-01-31T13:28:55.784Z,23.24
2019-01-31T13:31:24.161Z,23.29
2019-01-31T13:33:52.574Z,23.29
2019-01-31T13:36:21.774Z,23.27
2019-01-31T13:38:50.460Z,23.31
2019-01-31T13:41:20.663Z,23.25
2019-01-31T13:43:57.394Z,23.35
2019-01-31T13:46:20.423Z,23.35
2019-01-31T13:48:48.797Z,23.35
2019-01-31T13:58:09.969Z,23.35
2019-01-31T14:00:37.846Z,23.35
2019-01-31T14:03:08.312Z,23.20
2019-01-31T14:05:36.782Z,23.20
2019-01-31T14:08:06.921Z,23.27
2019-01-31T14:10:37.444Z,23.26
2019-01-31T14:13:11.445Z,23.26
2019-01-31T14:15:41.721Z,23.27
2019-01-31T14:18:10.681Z,23.26
2019-01-31T14:20:40.389Z,23.16
2019-01-31T14:23:12.784Z,23.29
2019-01-31T14:25:41.630Z,23.17
2019-01-31T14:28:11.457Z,23.17
2019-01-31T14:30:39.819Z,23.25
2019-01-31T14:33:28.782Z,23.24
2019-01-31T14:35:59.869Z,23.23
2019-01-31T14:38:28.912Z,23.22
2019-01-31T14:40:58.792Z,23.24
2019-01-31T14:43:29.349Z,23.24
2019-01-31T14:46:00.111Z,23.23
2019-01-31T14:51:05.889Z,23.25
2019-01-31T14:53:36.730Z,23.10
2019-01-31T14:56:05.378Z,23.10
2019-01-31T14:58:35.833Z,23.20
2019-01-31T15:01:07.393Z,23.18
2019-01-31T15:03:36.792Z,23.18
2019-01-31T15:06:06.781Z,23.18
2019-01-31T15:08:35.312Z,23.16
2019-01-31T15:11:03.750Z,23.18
2019-01-31T15:13:35.793Z,23.16
2019-01-31T15:16:06.693Z,23.16
2019-01-31T15:18:35.379Z,23.16
2019-01-31T15:21:05.845Z,23.13
2019-01-31T15:23:36.056Z,23.12
2019-01-31T15:27:32.885Z,23.01
2019-01-31T15:30:01.837Z,22.93
2019-01-31T15:32:32.833Z,22.96
2019-01-31T15:35:00.798Z,22.96
2019-01-31T15:37:31.356Z,23.06
2019-01-31T15:40:00.389Z,23.06
2019-01-31T15:42:30.884Z,22.92
2019-01-31T15:44:59.900Z,23.02
2019-01-31T15:47:29.808Z,22.90
2019-01-31T15:49:58.761Z,22.93
2019-01-31T15:52:28.190Z,22.96
2019-01-31T15:56:54.801Z,22.96
2019-01-31T15:59:24.725Z,22.94
2019-01-31T16:01:55.730Z,22.92
2019-01-31T16:04:25.869Z,22.92
2019-01-31T16:09:31.635Z,22.95
2019-01-31T16:13:02.722Z,23.04
2019-01-31T16:15:31.748Z,22.87
2019-01-31T16:18:01.361Z,23.03
2019-01-31T16:20:30.982Z,22.88
2019-01-31T16:23:02.009Z,22.86
2019-01-31T16:25:30.798Z,22.88
2019-01-31T16:28:00.242Z,22.85
2019-01-31T16:30:29.718Z,22.85
2019-01-31T16:32:57.250Z,22.93
2019-01-31T16:35:27.024Z,22.83
2019-01-31T16:37:56.803Z,22.81
2019-01-31T16:40:25.774Z,22.86
2019-01-31T16:42:54.413Z,22.86
2019-01-31T16:45:23.771Z,22.91
2019-01-31T16:47:52.591Z,22.90
2019-01-31T16:50:22.202Z,22.93
2019-01-31T16:52:51.050Z,22.93
2019-01-31T16:55:21.026Z,22.95
2019-01-31T16:57:50.690Z,22.95
2019-01-31T17:00:24.674Z,22.80
2019-01-31T17:02:52.298Z,22.86
2019-01-31T17:05:24.700Z,22.78
2019-01-31T17:07:53.206Z,22.78
2019-01-31T17:10:22.922Z,22.80
2019-01-31T17:12:51.715Z,22.81
2019-01-31T17:18:06.739Z,22.91
2019-01-31T17:20:40.028Z,22.85
2019-01-31T17:23:09.731Z,22.75
2019-01-31T17:25:40.043Z,22.86
2019-01-31T17:28:11.360Z,22.86
2019-01-31T17:30:41.649Z,22.83
2019-01-31T17:33:09.725Z,22.80
2019-01-31T17:35:42.685Z,22.80
2019-01-31T17:38:11.957Z,22.89
2019-01-31T17:40:42.764Z,22.84
2019-01-31T17:43:12.854Z,22.83
2019-01-31T17:45:41.818Z,22.83
2019-01-31T17:48:18.409Z,22.69
2019-01-31T17:50:48.595Z,22.69
2019-01-31T17:53:19.365Z,22.61
2019-01-31T17:55:47.729Z,22.61
2019-01-31T17:58:18.742Z,22.79
2019-01-31T18:00:52.996Z,22.79
2019-01-31T18:03:22.765Z,22.73
2019-01-31T18:05:53.342Z,22.63
2019-01-31T18:08:22.032Z,22.63
2019-01-31T18:10:52.016Z,22.62
2019-01-31T18:13:20.846Z,22.57
2019-01-31T18:15:51.651Z,22.55
2019-01-31T18:18:19.293Z,22.55
2019-01-31T18:20:50.488Z,22.56
2019-01-31T18:23:20.276Z,22.56
2019-01-31T18:25:49.763Z,22.56
2019-01-31T18:28:19.832Z,22.55
2019-01-31T18:30:49.795Z,22.57
2019-01-31T18:33:21.346Z,22.63
2019-01-31T18:35:50.412Z,22.65
2019-01-31T18:38:20.086Z,22.57
2019-01-31T18:40:49.831Z,22.44
2019-01-31T18:43:19.827Z,22.44
2019-01-31T18:45:53.566Z,22.52
2019-01-31T18:48:20.768Z,22.44
2019-01-31T18:50:49.829Z,22.44
2019-01-31T18:53:19.183Z,22.46
2019-01-31T18:58:32.732Z,22.41
2019-01-31T19:01:05.693Z,22.41
2019-01-31T19:03:39.598Z,22.50
2019-01-31T19:06:08.810Z,22.63
2019-01-31T19:08:39.013Z,22.68
2019-01-31T19:11:07.349Z,22.68
2019-01-31T19:13:56.703Z,22.75
2019-01-31T19:16:25.026Z,22.75
2019-01-31T19:18:53.996Z,22.74
2019-01-31T19:21:24.861Z,22.59
2019-01-31T19:23:52.747Z,22.70
2019-01-31T19:26:22.906Z,22.70
2019-01-31T19:28:51.359Z,22.77
2019-01-31T19:31:22.377Z,22.71
2019-01-31T19:33:51.969Z,22.71
2019-01-31T19:36:20.022Z,22.66
2019-01-31T19:38:49.089Z,22.78
2019-01-31T19:41:20.762Z,22.81
2019-01-31T19:43:52.762Z,22.81
2019-01-31T19:46:21.765Z,22.71
2019-01-31T19:48:50.344Z,22.79
2019-01-31T19:51:20.199Z,22.84
2019-01-31T19:53:52.684Z,22.80
2019-01-31T19:56:22.995Z,22.80
2019-01-31T19:59:12.701Z,22.85
2019-01-31T20:01:40.770Z,22.83
2019-01-31T20:04:10.628Z,22.91
2019-01-31T20:06:40.749Z,22.91
2019-01-31T20:09:30.468Z,22.98
2019-01-31T20:11:58.314Z,22.98
2019-01-31T20:18:09.879Z,22.79
2019-01-31T20:21:33.054Z,22.39
2019-01-31T20:24:03.725Z,22.61
2019-01-31T20:26:36.003Z,22.80
2019-01-31T20:29:04.874Z,22.80
2019-01-31T20:31:35.348Z,22.92
2019-01-31T20:36:00.761Z,22.94
2019-01-31T20:38:30.346Z,22.86
2019-01-31T20:43:44.347Z,23.03
2019-01-31T20:46:13.985Z,22.84
2019-01-31T20:48:43.157Z,22.91
2019-01-31T20:51:12.752Z,22.91
2019-01-31T20:53:42.090Z,22.95
2019-01-31T20:56:12.677Z,22.96
2019-01-31T20:58:41.352Z,22.93
2019-01-31T21:01:09.819Z,22.93
2019-01-31T21:03:39.747Z,22.94
2019-01-31T21:06:14.060Z,22.83
2019-01-31T21:08:42.692Z,22.83
2019-01-31T21:11:10.739Z,22.88
2019-01-31T21:13:40.386Z,23.03
2019-01-31T21:16:09.035Z,22.96
2019-01-31T21:18:37.597Z,22.96
2019-01-31T21:21:07.378Z,23.01
2019-01-31T21:23:36.766Z,23.02
2019-01-31T21:26:06.749Z,23.02
2019-01-31T21:28:35.708Z,22.99
2019-01-31T21:31:05.060Z,22.96
2019-01-31T21:33:33.985Z,22.97
2019-01-31T21:36:03.721Z,22.95
2019-01-31T21:38:32.585Z,22.95
2019-01-31T21:41:02.095Z,22.96
2019-01-31T21:43:30.672Z,22.97
2019-01-31T21:46:02.741Z,22.94
2019-01-31T21:48:33.719Z,22.92
2019-01-31T21:51:05.362Z,22.87
2019-01-31T21:53:36.483Z,22.87
2019-01-31T21:56:04.904Z,22.93
2019-01-31T21:58:32.983Z,22.98
2019-01-31T22:01:03.365Z,22.98
2019-01-31T22:03:32.762Z,22.98
2019-01-31T22:06:02.842Z,22.90
2019-01-31T22:08:31.128Z,22.90
2019-01-31T22:11:01.322Z,22.99
2019-01-31T22:13:30.005Z,23.02
2019-01-31T22:16:00.263Z,23.03
2019-01-31T22:18:28.266Z,23.06
2019-01-31T22:20:56.793Z,23.06
2019-01-31T22:23:25.116Z,22.97
2019-01-31T22:25:52.677Z,22.98
2019-01-31T22:28:21.713Z,22.98
2019-01-31T22:30:50.968Z,23.09
2019-01-31T22:33:19.597Z,23.07
2019-01-31T22:35:48.552Z,23.07
2019-01-31T22:38:18.634Z,23.08
2019-01-31T22:40:47.015Z,23.09
2019-01-31T22:43:17.295Z,23.09
2019-01-31T22:45:45.116Z,23.09
2019-01-31T22:48:13.948Z,23.14
2019-01-31T22:50:42.065Z,23.14
2019-01-31T22:53:09.971Z,23.14
2019-01-31T22:55:38.778Z,23.04
2019-01-31T22:58:06.876Z,23.04
2019-01-31T23:01:19.045Z,23.08
2019-01-31T23:03:48.549Z,23.08
2019-01-31T23:06:18.348Z,23.16
2019-01-31T23:08:46.769Z,23.15
2019-01-31T23:11:15.507Z,23.14
2019-01-31T23:13:43.790Z,23.17
2019-01-31T23:16:12.741Z,23.13
2019-01-31T23:19:20.374Z,23.15
2019-01-31T23:21:49.796Z,23.24
2019-01-31T23:24:20.321Z,23.24
2019-01-31T23:26:49.870Z,23.23
2019-01-31T23:29:20.539Z,23.14
2019-01-31T23:31:50.665Z,23.14
2019-01-31T23:35:18.782Z,23.28
2019-01-31T23:37:48.291Z,23.21
2019-01-31T23:40:21.778Z,23.21
2019-01-31T23:45:36.139Z,23.27
2019-01-31T23:48:05.755Z,23.27
2019-01-31T23:50:34.358Z,23.28
2019-01-31T23:54:34.923Z,23.29
2019-01-31T23:57:04.924Z,23.26
2019-01-31T23:59:55.140Z,23.26
